Time;durP1;ratioP1;P1;durP2;ratioP2;P2;SDS_P1;SDS_P2;PMS_P1;PMS_P2;Temp;Humidity;BMP_temperature;BMP_pressure;BME280_temperature;BME280_humidity;BME280_pressure;Samples;Min_cycle;Max_cycle;Signal;HPM_P1;HPM_P2
2023/06/01 00:00:25;;;;;;;;;;;;;;;;;;5054705;28;19909;-37
2023/06/01 00:02:51;;;;;;;;;;;;;;;;;;5054496;28;19913;-39
2023/06/01 00:05:17;;;;;;;;;;;;;;;;;;5054624;28;19909;-36
2023/06/01 00:07:42;;;;;;;;;;;;;;;;;;5054373;28;20330;-39
2023/06/01 00:10:08;;;;;;;;;;;;;;;;;;5054491;28;19916;-37
2023/06/01 00:12:34;;;;;;;;;;;;;;;;;;5054156;28;20362;-38
2023/06/01 00:15:00;;;;;;;;;;;;;;;;;;5054433;28;19909;-39
2023/06/01 00:17:28;;;;;;;;;;;;;;;;;;5054638;28;20353;-38
2023/06/01 00:19:54;;;;;;;;;;;;;;;;;;5054174;28;19909;-39
2023/06/01 00:22:20;;;;;;;;;;;;;;;;;;5054171;28;19973;-37
2023/06/01 00:24:46;;;;;;;;;;;;;;;;;;5054247;28;20410;-38
2023/06/01 00:27:12;;;;;;;;;;;;;;;;;;5054251;28;19985;-38
2023/06/01 00:29:38;;;;;;;;;;;;;;;;;;5054188;28;20016;-39
2023/06/01 00:32:04;;;;;;;;;;;;;;;;;;5053917;28;19909;-38
2023/06/01 00:34:30;;;;;;;;;;;;;;;;;;5054026;28;19962;-36
2023/06/01 00:36:56;;;;;;;;;;;;;;;;;;5054196;28;19913;-39
2023/06/01 00:39:22;;;;;;;;;;;;;;;;;;5053947;28;19967;-40
2023/06/01 00:41:47;;;;;;;;;;;;;;;;;;5054051;28;19999;-37
2023/06/01 00:44:13;;;;;;;;;;;;;;;;;;5053887;28;19908;-37
2023/06/01 00:46:39;;;;;;;;;;;;;;;;;;5053636;28;20405;-40
2023/06/01 00:49:05;;;;;;;;;;;;;;;;;;5053026;28;19917;-34
2023/06/01 00:51:31;;;;;;;;;;;;;;;;;;5053939;28;20284;-40
2023/06/01 00:53:57;;;;;;;;;;;;;;;;;;5053765;28;19913;-36
2023/06/01 00:56:23;;;;;;;;;;;;;;;;;;5053717;28;20251;-34
2023/06/01 00:58:49;;;;;;;;;;;;;;;;;;5053880;28;19916;-37
2023/06/01 01:01:18;;;;;;;;;;;;;;;;;;5053337;28;20047;-39
2023/06/01 01:03:46;;;;;;;;;;;;;;;;;;5053553;28;19909;-37
2023/06/01 01:06:13;;;;;;;;;;;;;;;;;;5053682;28;19909;-38
2023/06/01 01:08:38;;;;;;;;;;;;;;;;;;5053359;28;19913;-35
2023/06/01 01:11:04;;;;;;;;;;;;;;;;;;5053350;28;20411;-35
2023/06/01 01:13:30;;;;;;;;;;;;;;;;;;5053053;28;19912;-39
2023/06/01 01:15:56;;;;;;;;;;;;;;;;;;5053311;28;19963;-36
2023/06/01 01:18:22;;;;;;;;;;;;;;;;;;5053017;28;19913;-37
2023/06/01 01:20:48;;;;;;;;;;;;;;;;;;5053087;28;20361;-36
2023/06/01 01:23:38;;;;;;;10.88;4.95;;;;;;;;;;5051616;28;20416;-46
2023/06/01 01:26:23;;;;;;;11.35;5.40;;;;;;;;;;5051358;28;20033;-46
2023/06/01 01:29:01;;;;;;;11.93;4.50;;;;;;;;;;5051246;28;20120;-46
2023/06/01 01:31:29;;;;;;;10.95;4.60;;;;;;;;;;5051328;28;20017;-46
2023/06/01 01:33:56;;;;;;;10.45;5.47;;;;;;;;;;5051437;28;20021;-46
2023/06/01 01:36:22;;;;;;;12.00;4.90;;;;;;;;;;5051387;28;20017;-45
2023/06/01 01:38:48;;;;;;;12.88;4.68;;;;;;;;;;5051325;28;20527;-46
2023/06/01 01:41:14;;;;;;;9.23;4.60;;;;;;;;;;5051125;28;20049;-45
2023/06/01 01:43:40;;;;;;;12.95;5.35;;;;;;;;;;5051370;28;20359;-45
2023/06/01 01:46:22;;;;;;;12.32;4.70;;;;;;;;;;5051369;28;20433;-46
2023/06/01 01:48:55;;;;;;;9.27;4.70;;;;;;;;;;5051430;28;20478;-46
2023/06/01 01:51:25;;;;;;;10.13;5.05;;;;;;;;;;5051294;28;20027;-46
2023/06/01 01:53:52;;;;;;;11.07;4.18;;;;;;;;;;5051263;28;20104;-45
2023/06/01 01:56:19;;;;;;;14.80;5.30;;;;;;;;;;5053928;28;20517;-46
2023/06/01 01:58:45;;;;;;;11.90;4.25;;;;;;;;;;5055080;28;20056;-46
2023/06/01 02:01:12;;;;;;;9.73;4.30;;;;;;;;;;5055175;28;20553;-46
2023/06/01 02:03:38;;;;;;;12.32;4.88;;;;;;;;;;5054535;28;20037;-45
2023/06/01 02:06:04;;;;;;;11.13;4.70;;;;;;;;;;5054864;28;20367;-46
2023/06/01 02:08:30;;;;;;;9.02;4.45;;;;;;;;;;5055032;28;20467;-46
2023/06/01 02:10:56;;;;;;;8.93;5.13;;;;;;;;;;5054783;28;20032;-45
2023/06/01 02:13:22;;;;;;;12.25;5.00;;;;;;;;;;5054730;28;20025;-46
2023/06/01 02:15:48;;;;;;;9.05;4.60;;;;;;;;;;5054535;28;20033;-46
2023/06/01 02:18:17;;;;;;;13.13;5.22;;;;;;;;;;5054727;28;20082;-46
2023/06/01 02:20:44;;;;;;;10.98;4.13;;;;;;;;;;5053986;28;20025;-45
2023/06/01 02:23:10;;;;;;;10.13;4.57;;;;;;;;;;5054546;28;20020;-46
2023/06/01 02:25:36;;;;;;;9.70;4.40;;;;;;;;;;5054720;28;20033;-45
2023/06/01 02:28:02;;;;;;;11.32;4.32;;;;;;;;;;5054530;28;20086;-45
2023/06/01 02:30:28;;;;;;;14.48;4.55;;;;;;;;;;5054500;28;20021;-45
2023/06/01 02:32:54;;;;;;;10.70;4.72;;;;;;;;;;5054417;28;20020;-45
2023/06/01 02:35:20;;;;;;;10.48;4.88;;;;;;;;;;5054639;28;20029;-45
2023/06/01 02:37:46;;;;;;;12.25;4.50;;;;;;;;;;5054388;28;20442;-46
2023/06/01 02:40:12;;;;;;;9.45;4.07;;;;;;;;;;5054092;28;20489;-45
2023/06/01 02:42:39;;;;;;;9.73;4.65;;;;;;;;;;5054282;28;20067;-46
2023/06/01 02:45:06;;;;;;;12.93;4.55;;;;;;;;;;5054581;28;20040;-46
2023/06/01 02:47:32;;;;;;;11.02;4.15;;;;;;;;;;5054196;28;20091;-46
2023/06/01 02:49:57;;;;;;;10.38;4.25;;;;;;;;;;5054121;28;20505;-46
2023/06/01 02:52:23;;;;;;;7.57;4.25;;;;;;;;;;5053978;28;20056;-46
2023/06/01 02:54:49;;;;;;;10.25;4.40;;;;;;;;;;5054230;28;20028;-46
2023/06/01 02:57:15;;;;;;;11.85;5.18;;;;;;;;;;5054352;28;20501;-46
2023/06/01 02:59:41;;;;;;;11.98;5.03;;;;;;;;;;5052886;28;20029;-45
2023/06/01 03:02:07;;;;;;;9.63;4.40;;;;;;;;;;5053876;28;20408;-45
2023/06/01 03:04:33;;;;;;;13.98;4.50;;;;;;;;;;5052242;28;20020;-45
2023/06/01 03:07:01;;;;;;;13.60;5.03;;;;;;;;;;5052656;28;20354;-45
2023/06/01 03:09:26;;;;;;;15.73;5.47;;;;;;;;;;5053828;28;20029;-46
2023/06/01 03:11:52;;;;;;;14.05;5.45;;;;;;;;;;5053826;28;20029;-44
2023/06/01 03:14:19;;;;;;;10.73;4.18;;;;;;;;;;5052454;28;20025;-45
2023/06/01 03:16:45;;;;;;;11.85;4.78;;;;;;;;;;5053959;28;20124;-45
2023/06/01 03:19:11;;;;;;;18.08;5.05;;;;;;;;;;5053544;28;20489;-45
2023/06/01 03:21:37;;;;;;;15.57;4.68;;;;;;;;;;5053587;28;20032;-45
2023/06/01 03:24:03;;;;;;;12.80;4.00;;;;;;;;;;5053139;28;20037;-45
2023/06/01 03:26:29;;;;;;;11.15;4.30;;;;;;;;;;5053467;28;20151;-44
2023/06/01 03:28:55;;;;;;;7.78;4.43;;;;;;;;;;5053320;28;20029;-45
2023/06/01 03:31:21;;;;;;;14.40;4.43;;;;;;;;;;5053451;28;20474;-45
2023/06/01 03:33:47;;;;;;;11.05;4.50;;;;;;;;;;5053080;28;20513;-45
2023/06/01 03:36:13;;;;;;;11.85;4.88;;;;;;;;;;5053390;28;20021;-45
2023/06/01 03:38:41;;;;;;;14.60;4.80;;;;;;;;;;5052990;28;20029;-45
2023/06/01 03:41:07;;;;;;;9.77;3.97;;;;;;;;;;5052992;28;20057;-45
2023/06/01 03:43:33;;;;;;;12.73;4.43;;;;;;;;;;5053069;28;20466;-44
2023/06/01 03:45:59;;;;;;;11.50;4.68;;;;;;;;;;5052860;28;20036;-45
2023/06/01 03:48:25;;;;;;;10.82;4.47;;;;;;;;;;5051808;28;20394;-45
2023/06/01 03:50:51;;;;;;;10.75;4.63;;;;;;;;;;5053160;28;20032;-45
2023/06/01 03:53:17;;;;;;;11.27;5.03;;;;;;;;;;5052985;28;20021;-44
2023/06/01 03:55:43;;;;;;;9.68;4.97;;;;;;;;;;5051079;28;20385;-44
2023/06/01 03:58:09;;;;;;;10.25;3.65;;;;;;;;;;5052899;28;20040;-44
2023/06/01 04:00:36;;;;;;;12.10;5.22;;;;;;;;;;5053012;28;20017;-44
2023/06/01 04:03:06;;;;;;;12.00;4.90;;;;;;;;;;5052900;28;20690;-44
2023/06/01 04:05:32;;;;;;;11.27;4.30;;;;;;;;;;5051756;28;20028;-45
2023/06/01 04:07:58;;;;;;;13.75;4.57;;;;;;;;;;5052724;28;20037;-44
2023/06/01 04:10:24;;;;;;;9.63;4.50;;;;;;;;;;5052201;28;20040;-44
2023/06/01 04:12:51;;;;;;;11.02;4.95;;;;;;;;;;5052940;28;20024;-44
2023/06/01 04:15:19;;;;;;;8.90;4.18;;;;;;;;;;5052855;28;20365;-44
2023/06/01 04:17:45;;;;;;;13.88;4.95;;;;;;;;;;5051221;28;20025;-45
2023/06/01 04:20:18;;;;;;;10.73;4.32;;;;;;;;;;5052712;28;20025;-45
2023/06/01 04:22:45;;;;;;;8.38;4.60;;;;;;;;;;5052571;28;20092;-45
2023/06/01 04:25:12;;;;;;;9.93;4.20;;;;;;;;;;5050496;28;20025;-45
2023/06/01 04:27:44;;;;;;;8.75;4.53;;;;;;;;;;5052381;28;20057;-45
2023/06/01 04:30:10;;;;;;;11.20;4.60;;;;;;;;;;5051829;28;20033;-45
2023/06/01 04:32:37;;;;;;;14.40;5.20;;;;;;;;;;5051740;28;20362;-45
2023/06/01 04:35:05;;;;;;;11.82;4.95;;;;;;;;;;5052106;28;20488;-45
2023/06/01 04:37:34;;;;;;;10.45;4.38;;;;;;;;;;5050417;28;20021;-44
2023/06/01 04:39:59;;;;;;;10.93;4.38;;;;;;;;;;5051809;28;20045;-45
2023/06/01 04:42:25;;;;;;;13.48;5.28;;;;;;;;;;5051765;28;20086;-46
2023/06/01 04:44:52;;;;;;;9.95;4.85;;;;;;;;;;5052083;28;20028;-45
2023/06/01 04:47:20;;;;;;;13.60;4.55;;;;;;;;;;5052000;28;20017;-44
2023/06/01 04:49:46;;;;;;;12.25;5.70;;;;;;;;;;5051918;28;20045;-44
2023/06/01 04:52:13;;;;;;;11.90;4.80;;;;;;;;;;5051918;28;20150;-45
2023/06/01 04:54:39;;;;;;;13.13;5.03;;;;;;;;;;5051770;28;20109;-45
2023/06/01 04:57:08;;;;;;;13.63;5.38;;;;;;;;;;5051901;28;20385;-45
2023/06/01 04:59:34;;;;;;;11.32;5.13;;;;;;;;;;5051885;28;20053;-44
2023/06/01 05:02:01;;;;;;;14.20;5.55;;;;;;;;;;5051837;28;20108;-45
2023/06/01 05:04:27;;;;;;;16.77;5.22;;;;;;;;;;5051792;28;20029;-45
2023/06/01 05:06:53;;;;;;;10.20;4.32;;;;;;;;;;5051804;28;20025;-45
2023/06/01 05:09:19;;;;;;;11.38;4.90;;;;;;;;;;5051632;28;20024;-45
2023/06/01 05:11:45;;;;;;;12.70;5.32;;;;;;;;;;5050474;28;20017;-45
2023/06/01 05:14:11;;;;;;;10.15;4.60;;;;;;;;;;5051999;28;20367;-46
2023/06/01 05:16:37;;;;;;;11.73;4.40;;;;;;;;;;5051704;28;20029;-45
2023/06/01 05:19:03;;;;;;;9.55;4.65;;;;;;;;;;5051523;28;20028;-44
2023/06/01 05:21:31;;;;;;;13.38;5.07;;;;;;;;;;5051773;28;20465;-45
2023/06/01 05:23:57;;;;;;;10.32;4.28;;;;;;;;;;5051539;28;20023;-45
2023/06/01 05:26:23;;;;;;;11.38;4.55;;;;;;;;;;5051567;28;20119;-48
2023/06/01 05:28:49;;;;;;;12.35;4.55;;;;;;;;;;5051428;28;20033;-45
2023/06/01 05:31:16;;;;;;;12.30;5.70;;;;;;;;;;5054613;28;20021;-45
2023/06/01 05:33:42;;;;;;;13.88;5.25;;;;;;;;;;5055954;28;20086;-45
2023/06/01 05:36:08;;;;;;;11.18;5.65;;;;;;;;;;5055787;28;20020;-44
2023/06/01 05:38:34;;;;;;;10.02;5.03;;;;;;;;;;5055381;28;20053;-45
2023/06/01 05:41:00;;;;;;;11.90;4.88;;;;;;;;;;5055295;28;20107;-45
2023/06/01 05:43:25;;;;;;;15.18;5.03;;;;;;;;;;5055232;28;20021;-45
2023/06/01 05:45:51;;;;;;;12.38;4.95;;;;;;;;;;5055227;28;20033;-44
2023/06/01 05:48:18;;;;;;;14.10;5.15;;;;;;;;;;5055032;28;20531;-45
2023/06/01 05:50:44;;;;;;;10.27;4.70;;;;;;;;;;5054965;28;20464;-45
2023/06/01 05:53:10;;;;;;;9.07;4.60;;;;;;;;;;5055180;28;20021;-44
2023/06/01 05:55:36;;;;;;;13.70;4.25;;;;;;;;;;5055145;28;20025;-45
2023/06/01 05:58:02;;;;;;;7.88;3.78;;;;;;;;;;5054041;28;20115;-45
2023/06/01 06:00:28;;;;;;;7.85;3.85;;;;;;;;;;5055288;28;20108;-44
2023/06/01 06:02:54;;;;;;;12.75;4.40;;;;;;;;;;5055030;28;20462;-44
2023/06/01 06:05:20;;;;;;;9.77;4.68;;;;;;;;;;5055041;28;20421;-45
2023/06/01 06:07:46;;;;;;;11.02;4.55;;;;;;;;;;5054849;28;20020;-45
2023/06/01 06:10:12;;;;;;;11.23;4.28;;;;;;;;;;5055075;28;20025;-45
2023/06/01 06:12:38;;;;;;;11.63;4.75;;;;;;;;;;5054845;28;20024;-44
2023/06/01 06:15:04;;;;;;;9.00;4.03;;;;;;;;;;5054940;28;20095;-44
2023/06/01 06:17:30;;;;;;;9.43;3.90;;;;;;;;;;5054698;28;20104;-44
2023/06/01 06:19:57;;;;;;;8.23;4.22;;;;;;;;;;5054769;28;20096;-44
2023/06/01 06:22:23;;;;;;;9.35;4.35;;;;;;;;;;5054719;28;20029;-44
2023/06/01 06:24:49;;;;;;;11.88;3.78;;;;;;;;;;5053577;28;20036;-44
2023/06/01 06:27:15;;;;;;;10.60;3.90;;;;;;;;;;5053868;28;20037;-44
2023/06/01 06:29:41;;;;;;;11.93;4.25;;;;;;;;;;5053464;28;20037;-44
2023/06/01 06:32:07;;;;;;;10.68;4.18;;;;;;;;;;5054751;28;20029;-44
2023/06/01 06:34:35;;;;;;;17.83;4.68;;;;;;;;;;5054543;28;20519;-45
2023/06/01 06:37:05;;;;;;;9.57;4.93;;;;;;;;;;5054696;28;20021;-45
2023/06/01 06:39:31;;;;;;;12.65;4.00;;;;;;;;;;5054396;28;20041;-44
2023/06/01 06:41:57;;;;;;;13.95;4.30;;;;;;;;;;5054236;28;20032;-44
2023/06/01 06:44:23;;;;;;;11.60;4.85;;;;;;;;;;5054572;28;20075;-45
2023/06/01 06:46:49;;;;;;;12.48;4.22;;;;;;;;;;5054579;28;20028;-45
2023/06/01 06:49:15;;;;;;;8.30;4.05;;;;;;;;;;5054205;28;20021;-45
2023/06/01 06:51:41;;;;;;;12.02;3.80;;;;;;;;;;5054033;28;20021;-44
2023/06/01 06:54:07;;;;;;;10.68;3.85;;;;;;;;;;5054126;28;20508;-44
2023/06/01 06:56:33;;;;;;;10.57;3.92;;;;;;;;;;5052923;28;20021;-44
2023/06/01 06:59:00;;;;;;;12.80;3.67;;;;;;;;;;5054001;28;20021;-44
2023/06/01 07:01:26;;;;;;;12.27;4.63;;;;;;;;;;5053811;28;20029;-44
2023/06/01 07:03:52;;;;;;;12.38;4.93;;;;;;;;;;5053950;28;20032;-43
2023/06/01 07:06:19;;;;;;;11.10;4.22;;;;;;;;;;5053888;28;20016;-45
2023/06/01 07:08:45;;;;;;;11.30;4.32;;;;;;;;;;5053753;28;20025;-44
2023/06/01 07:11:11;;;;;;;9.82;4.47;;;;;;;;;;5052636;28;20667;-45
2023/06/01 07:13:37;;;;;;;12.18;4.40;;;;;;;;;;5053932;28;20064;-44
2023/06/01 07:16:04;;;;;;;10.88;4.28;;;;;;;;;;5053730;28;20017;-44
2023/06/01 07:18:30;;;;;;;9.52;3.70;;;;;;;;;;5053771;28;20120;-44
2023/06/01 07:20:57;;;;;;;7.97;3.88;;;;;;;;;;5053768;28;20035;-44
2023/06/01 07:23:23;;;;;;;11.38;4.20;;;;;;;;;;5053613;28;20543;-44
2023/06/01 07:25:49;;;;;;;9.10;4.07;;;;;;;;;;5053727;28;20029;-44
2023/06/01 07:28:15;;;;;;;12.38;4.35;;;;;;;;;;5053528;28;20031;-44
2023/06/01 07:30:42;;;;;;;18.35;3.75;;;;;;;;;;5053624;28;20444;-44
2023/06/01 07:33:08;;;;;;;10.35;3.92;;;;;;;;;;5053592;28;20017;-45
2023/06/01 07:35:34;;;;;;;11.27;3.78;;;;;;;;;;5053587;28;20021;-45
2023/06/01 07:38:02;;;;;;;9.30;3.85;;;;;;;;;;5053417;28;20028;-44
2023/06/01 07:40:28;;;;;;;9.68;3.63;;;;;;;;;;5053145;28;20045;-45
2023/06/01 07:42:54;;;;;;;9.98;4.00;;;;;;;;;;5053417;28;20033;-44
2023/06/01 07:45:20;;;;;;;9.25;4.43;;;;;;;;;;5053169;28;20020;-44
2023/06/01 07:47:46;;;;;;;11.98;4.28;;;;;;;;;;5053126;28;20021;-44
2023/06/01 07:50:12;;;;;;;6.82;3.40;;;;;;;;;;5053214;28;20449;-44
2023/06/01 07:52:38;;;;;;;10.82;4.10;;;;;;;;;;5052503;28;20049;-45
2023/06/01 07:55:05;;;;;;;10.82;4.07;;;;;;;;;;5053064;28;20055;-46
2023/06/01 07:57:30;;;;;;;9.88;3.70;;;;;;;;;;5052906;28;20531;-44
2023/06/01 07:59:56;;;;;;;12.80;4.57;;;;;;;;;;5052970;28;20025;-44
2023/06/01 08:02:22;;;;;;;13.68;3.58;;;;;;;;;;5052865;28;20031;-44
2023/06/01 08:04:48;;;;;;;7.68;4.18;;;;;;;;;;5052990;28;20053;-40
2023/06/01 08:07:16;;;;;;;13.35;3.88;;;;;;;;;;5053759;28;20082;-36
2023/06/01 08:09:43;;;;;;;8.13;3.20;;;;;;;;;;5053672;28;20068;-38
2023/06/01 08:12:11;;;;;;;11.50;4.00;;;;;;;;;;5053821;28;20075;-37
2023/06/01 08:14:37;;;;;;;13.50;4.38;;;;;;;;;;5053688;28;20029;-38
2023/06/01 08:17:03;;;;;;;8.50;4.15;;;;;;;;;;5053683;28;20100;-38
2023/06/01 08:19:29;;;;;;;9.93;3.55;;;;;;;;;;5053540;28;20035;-39
2023/06/01 08:21:55;;;;;;;13.15;3.75;;;;;;;;;;5052594;28;20020;-38
2023/06/01 08:24:24;;;;;;;10.95;3.42;;;;;;;;;;5052827;28;20370;-39
2023/06/01 08:26:51;;;;;;;9.32;3.60;;;;;;;;;;5053010;28;20477;-38
2023/06/01 08:29:17;;;;;;;8.40;3.53;;;;;;;;;;5053289;28;20466;-37
2023/06/01 08:31:43;;;;;;;8.18;3.90;;;;;;;;;;5053160;28;20031;-34
2023/06/01 08:34:08;;;;;;;9.27;3.58;;;;;;;;;;5053203;28;20176;-40
2023/06/01 08:36:34;;;;;;;7.85;3.45;;;;;;;;;;5053030;28;20021;-38
2023/06/01 08:39:00;;;;;;;7.50;3.53;;;;;;;;;;5053042;28;20051;-38
2023/06/01 08:41:35;;;;;;;9.88;3.80;;;;;;;;;;5053048;28;20060;-37
2023/06/01 08:44:06;;;;;;;10.88;3.10;;;;;;;;;;5053072;28;20048;-38
2023/06/01 08:46:34;;;;;;;13.73;4.32;;;;;;;;;;5051917;28;20758;-38
2023/06/01 08:49:01;;;;;;;10.60;4.18;;;;;;;;;;5053059;28;20567;-36
2023/06/01 08:51:27;;;;;;;10.90;3.45;;;;;;;;;;5053078;28;20027;-36
2023/06/01 08:53:55;;;;;;;9.70;3.42;;;;;;;;;;5052830;28;20120;-35
2023/06/01 08:56:23;;;;;;;10.13;3.45;;;;;;;;;;5053045;28;20020;-38
2023/06/01 08:58:50;;;;;;;8.32;3.30;;;;;;;;;;5052665;28;20036;-40
2023/06/01 09:01:21;;;;;;;11.35;3.28;;;;;;;;;;5052435;28;20029;-39
2023/06/01 09:03:48;;;;;;;14.80;3.42;;;;;;;;;;5052525;28;20374;-37
2023/06/01 09:06:14;;;;;;;9.40;3.67;;;;;;;;;;5052469;28;20466;-36
2023/06/01 09:08:40;;;;;;;8.93;3.47;;;;;;;;;;5052267;28;20033;-39
2023/06/01 09:11:06;;;;;;;13.98;3.22;;;;;;;;;;5052200;28;20539;-38
2023/06/01 09:13:36;;;;;;;13.77;4.20;;;;;;;;;;5052299;28;20067;-38
2023/06/01 09:16:02;;;;;;;7.65;3.50;;;;;;;;;;5052574;28;20386;-39
2023/06/01 09:18:28;;;;;;;10.63;5.10;;;;;;;;;;5052493;28;20029;-35
2023/06/01 09:20:56;;;;;;;11.07;3.35;;;;;;;;;;5052334;28;20028;-36
2023/06/01 09:23:26;;;;;;;10.15;3.03;;;;;;;;;;5052012;28;20029;-36
2023/06/01 09:26:11;;;;;;;7.25;3.15;;;;;;;;;;5052036;28;20033;-34
2023/06/01 09:28:55;;;;;;;8.77;3.00;;;;;;;;;;5052003;28;20474;-35
2023/06/01 09:31:40;;;;;;;8.73;3.70;;;;;;;;;;5052311;28;20063;-40
2023/06/01 09:34:07;;;;;;;10.25;3.08;;;;;;;;;;5052256;28;20013;-39
2023/06/01 09:36:33;;;;;;;9.07;3.55;;;;;;;;;;5052129;28;20036;-37
2023/06/01 09:39:28;;;;;;;17.42;4.07;;;;;;;;;;5051933;28;20087;-39
2023/06/01 09:41:54;;;;;;;11.30;3.60;;;;;;;;;;5043415;28;20053;-38
2023/06/01 09:44:27;;;;;;;13.75;3.83;;;;;;;;;;5052006;28;20347;-38
2023/06/01 09:46:54;;;;;;;10.13;3.30;;;;;;;;;;5051975;28;20025;-36
2023/06/01 09:49:21;;;;;;;10.90;3.72;;;;;;;;;;5052038;28;20029;-37
2023/06/01 09:51:47;;;;;;;9.20;3.42;;;;;;;;;;5052043;28;20162;-37
2023/06/01 09:54:32;;;;;;;10.95;3.97;;;;;;;;;;5051802;28;20028;-38
2023/06/01 09:56:59;;;;;;;14.73;3.80;;;;;;;;;;5051870;28;20021;-37
2023/06/01 09:59:28;;;;;;;12.10;3.70;;;;;;;;;;5051998;28;20017;-35
2023/06/01 10:01:54;;;;;;;10.05;3.05;;;;;;;;;;5051580;28;20109;-34
2023/06/01 10:04:23;;;;;;;9.65;4.35;;;;;;;;;;5051946;28;20118;-37
2023/06/01 10:06:53;;;;;;;8.85;3.35;;;;;;;;;;5051605;28;20056;-35
2023/06/01 10:09:20;;;;;;;10.38;3.60;;;;;;;;;;5051892;28;20476;-36
2023/06/01 10:11:48;;;;;;;11.85;3.78;;;;;;;;;;5051790;28;20029;-34
2023/06/01 10:14:14;;;;;;;8.57;3.13;;;;;;;;;;5051836;28;20083;-35
2023/06/01 10:16:41;;;;;;;11.93;4.40;;;;;;;;;;5053805;28;20378;-35
2023/06/01 10:19:11;;;;;;;10.25;3.42;;;;;;;;;;5055403;28;20099;-37
2023/06/01 10:21:37;;;;;;;14.00;3.85;;;;;;;;;;5055476;28;20044;-39
2023/06/01 10:24:04;;;;;;;6.93;3.92;;;;;;;;;;5055628;28;20021;-36
2023/06/01 10:26:34;;;;;;;13.43;4.22;;;;;;;;;;5055322;28;20031;-37
2023/06/01 10:29:01;;;;;;;14.85;4.38;;;;;;;;;;5055139;28;20425;-34
2023/06/01 10:31:37;;;;;;;13.93;3.97;;;;;;;;;;5055119;28;20025;-35
2023/06/01 10:34:03;;;;;;;13.52;4.10;;;;;;;;;;5055071;28;20032;-35
2023/06/01 10:36:49;;;;;;;10.38;3.40;;;;;;;;;;5055154;28;20017;-36
2023/06/01 10:39:28;;;;;;;10.63;4.05;;;;;;;;;;5053884;28;20784;-37
2023/06/01 10:41:55;;;;;;;11.13;3.13;;;;;;;;;;5055106;28;20418;-39
2023/06/01 10:44:40;;;;;;;10.52;4.07;;;;;;;;;;5055113;28;20075;-36
2023/06/01 10:47:12;;;;;;;8.82;3.58;;;;;;;;;;5053721;28;20033;-32
2023/06/01 10:49:47;;;;;;;8.43;3.42;;;;;;;;;;5054774;28;20075;-37
2023/06/01 10:52:33;;;;;;;9.93;3.83;;;;;;;;;;5053666;28;20079;-39
2023/06/01 10:55:11;;;;;;;8.10;3.40;;;;;;;;;;5054974;28;20021;-38
2023/06/01 10:57:38;;;;;;;9.45;3.40;;;;;;;;;;5053325;28;20112;-33
2023/06/01 11:00:16;;;;;;;8.63;3.10;;;;;;;;;;5054635;28;20082;-38
2023/06/01 11:02:48;;;;;;;9.00;3.45;;;;;;;;;;5054631;28;20112;-40
2023/06/01 11:05:32;;;;;;;7.22;2.90;;;;;;;;;;5054595;28;20474;-34
2023/06/01 11:07:58;;;;;;;11.95;3.70;;;;;;;;;;5054551;28;20095;-34
2023/06/01 11:10:43;;;;;;;11.43;3.53;;;;;;;;;;5054587;28;20021;-37
2023/06/01 11:13:18;;;;;;;12.07;3.55;;;;;;;;;;5054477;28;20478;-34
2023/06/01 11:16:03;;;;;;;8.63;2.97;;;;;;;;;;5054255;28;20060;-36
2023/06/01 11:18:41;;;;;;;8.07;3.95;;;;;;;;;;5053227;28;20057;-34
2023/06/01 11:21:09;;;;;;;9.48;3.45;;;;;;;;;;5054415;28;20134;-35
2023/06/01 11:23:36;;;;;;;10.30;3.25;;;;;;;;;;5054137;28;20103;-38
2023/06/01 11:26:04;;;;;;;8.38;3.28;;;;;;;;;;5054028;28;20031;-34
2023/06/01 11:28:31;;;;;;;11.13;3.38;;;;;;;;;;5052954;28;20032;-36
2023/06/01 11:30:58;;;;;;;10.80;3.83;;;;;;;;;;5054036;28;20017;-35
2023/06/01 11:33:24;;;;;;;12.02;3.40;;;;;;;;;;5054255;28;20061;-34
2023/06/01 11:35:57;;;;;;;9.57;4.07;;;;;;;;;;5053968;28;20402;-38
2023/06/01 11:38:23;;;;;;;11.05;3.28;;;;;;;;;;5054083;28;20029;-37
2023/06/01 11:41:02;;;;;;;8.65;3.58;;;;;;;;;;5052526;28;20745;-33
2023/06/01 11:43:32;;;;;;;12.07;3.95;;;;;;;;;;5053899;28;20412;-36
2023/06/01 11:46:09;;;;;;;8.13;3.40;;;;;;;;;;5053891;28;20099;-35
2023/06/01 11:48:35;;;;;;;5.97;3.00;;;;;;;;;;5053602;28;20112;-37
2023/06/01 11:51:03;;;;;;;10.15;3.65;;;;;;;;;;5053785;28;20091;-34
2023/06/01 11:53:32;;;;;;;8.88;3.92;;;;;;;;;;5053757;28;20501;-34
2023/06/01 11:55:59;;;;;;;6.53;3.03;;;;;;;;;;5053506;28;20032;-35
2023/06/01 11:58:28;;;;;;;6.22;2.88;;;;;;;;;;5053534;28;20035;-36
2023/06/01 12:00:55;;;;;;;8.77;3.65;;;;;;;;;;5053438;28;20025;-40
2023/06/01 12:03:24;;;;;;;9.77;2.90;;;;;;;;;;5053562;28;20029;-36
2023/06/01 12:05:50;;;;;;;7.97;2.65;;;;;;;;;;5053481;28;20028;-33
2023/06/01 12:08:18;;;;;;;11.00;2.70;;;;;;;;;;5053133;28;20021;-39
2023/06/01 12:10:47;;;;;;;8.07;3.65;;;;;;;;;;5053276;28;20462;-38
2023/06/01 12:13:13;;;;;;;6.32;3.10;;;;;;;;;;5053224;28;20021;-39
2023/06/01 12:15:39;;;;;;;7.63;2.88;;;;;;;;;;5053081;28;20017;-34
2023/06/01 12:18:05;;;;;;;11.75;2.67;;;;;;;;;;5052925;28;20029;-35
2023/06/01 12:20:41;;;;;;;7.25;2.60;;;;;;;;;;5053191;28;20497;-36
2023/06/01 12:23:12;;;;;;;9.10;2.92;;;;;;;;;;5053107;28;20410;-35
2023/06/01 12:25:46;;;;;;;8.27;2.70;;;;;;;;;;5053236;28;20021;-41
2023/06/01 12:28:12;;;;;;;8.15;2.65;;;;;;;;;;5052938;28;20017;-35
2023/06/01 12:30:38;;;;;;;10.40;2.72;;;;;;;;;;5052944;28;20427;-33
2023/06/01 12:33:05;;;;;;;12.68;2.90;;;;;;;;;;5052969;28;20044;-37
2023/06/01 12:35:32;;;;;;;10.48;2.72;;;;;;;;;;5052817;28;20535;-35
2023/06/01 12:38:09;;;;;;;9.73;2.40;;;;;;;;;;5052864;28;20025;-35
2023/06/01 12:40:36;;;;;;;14.77;3.17;;;;;;;;;;5052429;28;20563;-37
2023/06/01 12:43:04;;;;;;;10.25;2.45;;;;;;;;;;5052790;28;20175;-39
2023/06/01 12:45:36;;;;;;;8.10;2.65;;;;;;;;;;5052726;28;20412;-38
2023/06/01 12:48:03;;;;;;;10.73;2.83;;;;;;;;;;5052711;28;20033;-37
2023/06/01 12:50:29;;;;;;;10.07;2.70;;;;;;;;;;5052767;28;20036;-33
2023/06/01 12:52:55;;;;;;;8.00;2.63;;;;;;;;;;5052663;28;20790;-38
2023/06/01 12:55:21;;;;;;;5.68;2.45;;;;;;;;;;5052545;28;20052;-34
2023/06/01 12:57:54;;;;;;;8.18;2.60;;;;;;;;;;5052271;28;20079;-35
2023/06/01 13:00:20;;;;;;;7.35;2.83;;;;;;;;;;5052318;28;20037;-36
2023/06/01 13:02:50;;;;;;;10.48;3.10;;;;;;;;;;5052620;28;20044;-35
2023/06/01 13:05:17;;;;;;;12.52;3.30;;;;;;;;;;5052209;28;20027;-40
2023/06/01 13:07:43;;;;;;;15.07;3.47;;;;;;;;;;5052395;28;20359;-34
2023/06/01 13:10:10;;;;;;;14.85;3.30;;;;;;;;;;5052215;28;20131;-38
2023/06/01 13:12:36;;;;;;;7.72;2.50;;;;;;;;;;5052200;28;20040;-37
2023/06/01 13:15:03;;;;;;;11.70;2.75;;;;;;;;;;5052191;28;20025;-34
2023/06/01 13:17:29;;;;;;;9.07;3.13;;;;;;;;;;5052356;28;20021;-37
2023/06/01 13:19:55;;;;;;;10.65;3.03;;;;;;;;;;5052007;28;20116;-38
2023/06/01 13:22:21;;;;;;;9.35;2.88;;;;;;;;;;5052262;28;20033;-38
2023/06/01 13:24:48;;;;;;;14.50;3.08;;;;;;;;;;5051007;28;20056;-34
2023/06/01 13:27:14;;;;;;;8.20;2.58;;;;;;;;;;5052188;28;20781;-33
2023/06/01 13:29:41;;;;;;;9.88;2.47;;;;;;;;;;5052015;28;20116;-34
2023/06/01 13:32:08;;;;;;;8.27;2.70;;;;;;;;;;5052247;28;20028;-36
2023/06/01 13:34:34;;;;;;;7.50;2.55;;;;;;;;;;5052156;28;20021;-36
2023/06/01 13:37:00;;;;;;;4.93;2.22;;;;;;;;;;5051844;28;20025;-39
2023/06/01 13:39:26;;;;;;;9.00;3.13;;;;;;;;;;5051778;28;20045;-36
2023/06/01 13:41:52;;;;;;;6.50;2.47;;;;;;;;;;5051840;28;20172;-36
2023/06/01 13:44:18;;;;;;;7.45;2.45;;;;;;;;;;5051770;28;20086;-36
2023/06/01 13:46:44;;;;;;;14.15;2.85;;;;;;;;;;5051841;28;20048;-37
2023/06/01 13:49:10;;;;;;;12.65;3.05;;;;;;;;;;5051633;28;20378;-39
2023/06/01 13:51:39;;;;;;;12.02;3.30;;;;;;;;;;5053688;28;20021;-37
2023/06/01 13:54:05;;;;;;;13.05;2.72;;;;;;;;;;5055887;28;20025;-38
2023/06/01 13:56:31;;;;;;;9.35;3.05;;;;;;;;;;5055689;28;20029;-36
2023/06/01 13:58:57;;;;;;;11.82;2.75;;;;;;;;;;5055986;28;20468;-36
2023/06/01 14:01:23;;;;;;;14.45;2.63;;;;;;;;;;5055799;28;20035;-40
2023/06/01 14:03:49;;;;;;;12.60;3.13;;;;;;;;;;5055959;28;20056;-35
2023/06/01 14:06:16;;;;;;;7.40;2.75;;;;;;;;;;5055530;28;20025;-36
2023/06/01 14:08:42;;;;;;;8.38;2.70;;;;;;;;;;5055582;28;20097;-39
2023/06/01 14:11:08;;;;;;;7.60;2.40;;;;;;;;;;5055568;28;20453;-35
2023/06/01 14:13:34;;;;;;;7.63;2.33;;;;;;;;;;5055415;28;20405;-34
2023/06/01 14:16:00;;;;;;;9.93;2.63;;;;;;;;;;5055310;28;20021;-39
2023/06/01 14:18:26;;;;;;;12.35;2.90;;;;;;;;;;5055264;28;20035;-38
2023/06/01 14:20:52;;;;;;;9.60;2.60;;;;;;;;;;5055491;28;20049;-35
2023/06/01 14:23:18;;;;;;;9.98;3.15;;;;;;;;;;5054458;28;20068;-36
2023/06/01 14:25:45;;;;;;;9.65;2.65;;;;;;;;;;5054662;28;20385;-35
2023/06/01 14:28:10;;;;;;;13.85;3.40;;;;;;;;;;5055019;28;20029;-35
2023/06/01 14:30:36;;;;;;;12.35;3.15;;;;;;;;;;5055236;28;20389;-38
2023/06/01 14:33:03;;;;;;;7.72;2.20;;;;;;;;;;5053938;28;20025;-35
2023/06/01 14:35:28;;;;;;;10.25;2.65;;;;;;;;;;5055016;28;20025;-36
2023/06/01 14:37:55;;;;;;;10.23;2.80;;;;;;;;;;5054921;28;20021;-39
2023/06/01 14:40:21;;;;;;;11.23;3.13;;;;;;;;;;5054582;28;20051;-34
2023/06/01 14:42:47;;;;;;;10.25;2.67;;;;;;;;;;5054852;28;20037;-39
2023/06/01 14:45:13;;;;;;;15.00;3.20;;;;;;;;;;5054809;28;20029;-34
2023/06/01 14:47:42;;;;;;;26.92;3.75;;;;;;;;;;5054801;28;20029;-36